Weather at Fergus (Vodarek Field)

Public forecast

Using degrees Celsius for public forecast. Weather courtesy of forecast.io.

Closest aviation weather report (METAR) to Fergus (Vodarek Field)

Closest report is Waterloo Airport, 16.2 nm (30.1 km) SSW. Retrieved 2020/10/24 05:00 UTC (59 minutes ago):

CYKF 240500Z AUTO 31015G23KT 9SM OVC013 06/05 A2991 RMK SLP130

Closest aviation forecast (TAF) to Fergus (Vodarek Field)

Closest forecast is Waterloo Airport, 16.2 nm (30.1 km) SSW. Retrieved 2020-10-24 02:39 UTC (3 hours ago):

TAF CYKF 240138Z 2402/2414 21012G22KT P6SM BKN060 TEMPO 2402/2404 BKN015 FM240400 30012G22KT P6SM SCT020 BKN030 TEMPO 2404/2414 BKN020 BECMG 2410/2412 36010G20KT RMK FCST BASED ON AUTO OBS NXT FCST BY 240800Z